sensor_id;sensor_type;location;lat;lon;timestamp;temperature;humidity
39519;DHT22;25200;53.394;10.414;2022-08-21T00:00:16;17.30;60.90
39519;DHT22;25200;53.394;10.414;2022-08-21T00:02:54;17.20;61.40
39519;DHT22;25200;53.394;10.414;2022-08-21T00:05:22;17.20;60.90
39519;DHT22;25200;53.394;10.414;2022-08-21T00:07:48;17.20;61.70
39519;DHT22;25200;53.394;10.414;2022-08-21T00:10:13;17.20;61.70
39519;DHT22;25200;53.394;10.414;2022-08-21T00:12:39;17.20;60.90
39519;DHT22;25200;53.394;10.414;2022-08-21T00:15:06;17.10;61.30
39519;DHT22;25200;53.394;10.414;2022-08-21T00:17:34;17.10;61.80
39519;DHT22;25200;53.394;10.414;2022-08-21T00:20:00;17.10;61.50
39519;DHT22;25200;53.394;10.414;2022-08-21T00:22:26;17.00;61.40
39519;DHT22;25200;53.394;10.414;2022-08-21T00:24:51;17.00;61.70
39519;DHT22;25200;53.394;10.414;2022-08-21T00:27:17;17.00;62.20
39519;DHT22;25200;53.394;10.414;2022-08-21T00:29:42;17.00;61.60
39519;DHT22;25200;53.394;10.414;2022-08-21T00:32:09;16.90;61.40
39519;DHT22;25200;53.394;10.414;2022-08-21T00:34:34;16.90;61.90
39519;DHT22;25200;53.394;10.414;2022-08-21T00:37:00;16.90;61.70
39519;DHT22;25200;53.394;10.414;2022-08-21T00:39:26;16.80;61.10
39519;DHT22;25200;53.394;10.414;2022-08-21T00:41:51;16.80;62.10
39519;DHT22;25200;53.394;10.414;2022-08-21T00:44:17;16.80;61.90
39519;DHT22;25200;53.394;10.414;2022-08-21T00:46:43;16.80;62.00
39519;DHT22;25200;53.394;10.414;2022-08-21T00:49:11;16.70;61.90
39519;DHT22;25200;53.394;10.414;2022-08-21T00:51:47;16.70;61.70
39519;DHT22;25200;53.394;10.414;2022-08-21T00:54:15;16.70;61.60
39519;DHT22;25200;53.394;10.414;2022-08-21T00:56:40;16.70;62.60
39519;DHT22;25200;53.394;10.414;2022-08-21T00:59:07;16.60;62.30
39519;DHT22;25200;53.394;10.414;2022-08-21T01:01:33;16.60;62.50
39519;DHT22;25200;53.394;10.414;2022-08-21T01:03:59;16.60;61.60
39519;DHT22;25200;53.394;10.414;2022-08-21T01:06:24;16.60;62.30
39519;DHT22;25200;53.394;10.414;2022-08-21T01:08:50;16.60;62.40
39519;DHT22;25200;53.394;10.414;2022-08-21T01:11:16;16.50;62.10
39519;DHT22;25200;53.394;10.414;2022-08-21T01:13:43;16.50;62.40
39519;DHT22;25200;53.394;10.414;2022-08-21T01:16:14;16.50;62.90
39519;DHT22;25200;53.394;10.414;2022-08-21T01:18:41;16.40;62.60
39519;DHT22;25200;53.394;10.414;2022-08-21T01:21:16;16.40;62.30
39519;DHT22;25200;53.394;10.414;2022-08-21T01:23:45;16.40;62.50
39519;DHT22;25200;53.394;10.414;2022-08-21T01:26:13;16.40;62.70
39519;DHT22;25200;53.394;10.414;2022-08-21T01:28:44;16.40;62.30
39519;DHT22;25200;53.394;10.414;2022-08-21T01:31:12;16.30;62.60
39519;DHT22;25200;53.394;10.414;2022-08-21T01:33:39;16.30;62.30
39519;DHT22;25200;53.394;10.414;2022-08-21T01:36:05;16.30;62.20
39519;DHT22;25200;53.394;10.414;2022-08-21T01:38:31;16.30;61.60
39519;DHT22;25200;53.394;10.414;2022-08-21T01:40:58;16.30;62.70
39519;DHT22;25200;53.394;10.414;2022-08-21T01:43:23;16.20;62.40
39519;DHT22;25200;53.394;10.414;2022-08-21T01:45:49;16.20;62.90
39519;DHT22;25200;53.394;10.414;2022-08-21T01:48:15;16.20;61.40
39519;DHT22;25200;53.394;10.414;2022-08-21T01:50:41;16.20;61.50
39519;DHT22;25200;53.394;10.414;2022-08-21T01:53:07;16.10;63.00
39519;DHT22;25200;53.394;10.414;2022-08-21T01:55:32;16.10;63.00
39519;DHT22;25200;53.394;10.414;2022-08-21T01:57:59;16.10;62.80
39519;DHT22;25200;53.394;10.414;2022-08-21T02:00:25;16.10;63.10
39519;DHT22;25200;53.394;10.414;2022-08-21T02:02:51;16.10;63.00
39519;DHT22;25200;53.394;10.414;2022-08-21T02:05:18;16.00;63.30
39519;DHT22;25200;53.394;10.414;2022-08-21T02:07:49;16.00;62.30
39519;DHT22;25200;53.394;10.414;2022-08-21T02:10:26;16.00;62.40
39519;DHT22;25200;53.394;10.414;2022-08-21T02:12:52;16.00;61.80
39519;DHT22;25200;53.394;10.414;2022-08-21T02:15:18;16.00;63.00
39519;DHT22;25200;53.394;10.414;2022-08-21T02:17:49;16.00;63.20
39519;DHT22;25200;53.394;10.414;2022-08-21T02:20:19;15.90;62.40
39519;DHT22;25200;53.394;10.414;2022-08-21T02:22:45;15.90;62.10
39519;DHT22;25200;53.394;10.414;2022-08-21T02:25:11;15.90;62.40
39519;DHT22;25200;53.394;10.414;2022-08-21T02:27:39;15.90;62.20
39519;DHT22;25200;53.394;10.414;2022-08-21T02:30:06;15.90;62.50
39519;DHT22;25200;53.394;10.414;2022-08-21T02:32:32;15.80;61.70
39519;DHT22;25200;53.394;10.414;2022-08-21T02:34:58;15.80;62.30
39519;DHT22;25200;53.394;10.414;2022-08-21T02:37:24;15.80;62.90
39519;DHT22;25200;53.394;10.414;2022-08-21T02:39:50;15.80;62.20
39519;DHT22;25200;53.394;10.414;2022-08-21T02:42:16;15.80;62.10
39519;DHT22;25200;53.394;10.414;2022-08-21T02:44:42;15.80;62.00
39519;DHT22;25200;53.394;10.414;2022-08-21T02:47:07;15.80;62.70
39519;DHT22;25200;53.394;10.414;2022-08-21T02:49:33;15.80;62.20
39519;DHT22;25200;53.394;10.414;2022-08-21T02:51:59;15.70;62.30
39519;DHT22;25200;53.394;10.414;2022-08-21T02:54:24;15.70;62.80
39519;DHT22;25200;53.394;10.414;2022-08-21T02:56:50;15.70;62.10
39519;DHT22;25200;53.394;10.414;2022-08-21T02:59:16;15.70;61.90
39519;DHT22;25200;53.394;10.414;2022-08-21T03:01:41;15.70;61.90
39519;DHT22;25200;53.394;10.414;2022-08-21T03:04:07;15.70;62.10
39519;DHT22;25200;53.394;10.414;2022-08-21T03:06:33;15.60;62.00
39519;DHT22;25200;53.394;10.414;2022-08-21T03:08:59;15.60;61.90
39519;DHT22;25200;53.394;10.414;2022-08-21T03:11:25;15.60;62.00
39519;DHT22;25200;53.394;10.414;2022-08-21T03:13:52;15.60;62.00
39519;DHT22;25200;53.394;10.414;2022-08-21T03:16:18;15.60;62.30
39519;DHT22;25200;53.394;10.414;2022-08-21T03:18:45;15.60;63.50
39519;DHT22;25200;53.394;10.414;2022-08-21T03:21:10;15.50;63.90
39519;DHT22;25200;53.394;10.414;2022-08-21T03:23:37;15.50;63.90
39519;DHT22;25200;53.394;10.414;2022-08-21T03:26:05;15.50;64.20
39519;DHT22;25200;53.394;10.414;2022-08-21T03:28:31;15.50;64.30
39519;DHT22;25200;53.394;10.414;2022-08-21T03:30:58;15.50;64.20
39519;DHT22;25200;53.394;10.414;2022-08-21T03:33:23;15.40;64.20
39519;DHT22;25200;53.394;10.414;2022-08-21T03:35:59;15.40;64.50
39519;DHT22;25200;53.394;10.414;2022-08-21T03:38:26;15.40;64.50
39519;DHT22;25200;53.394;10.414;2022-08-21T03:40:53;15.40;64.30
39519;DHT22;25200;53.394;10.414;2022-08-21T03:43:19;15.40;64.50
39519;DHT22;25200;53.394;10.414;2022-08-21T03:45:47;15.40;64.60
39519;DHT22;25200;53.394;10.414;2022-08-21T03:48:13;15.40;64.10
39519;DHT22;25200;53.394;10.414;2022-08-21T03:50:42;15.40;64.00
39519;DHT22;25200;53.394;10.414;2022-08-21T03:53:10;15.40;64.60
39519;DHT22;25200;53.394;10.414;2022-08-21T03:55:36;15.40;64.60
39519;DHT22;25200;53.394;10.414;2022-08-21T03:58:02;15.40;64.50
39519;DHT22;25200;53.394;10.414;2022-08-21T04:00:28;15.30;64.30
39519;DHT22;25200;53.394;10.414;2022-08-21T04:02:54;15.30;64.60
39519;DHT22;25200;53.394;10.414;2022-08-21T04:05:20;15.30;64.40
39519;DHT22;25200;53.394;10.414;2022-08-21T04:08:01;15.30;64.60
39519;DHT22;25200;53.394;10.414;2022-08-21T04:10:29;15.30;64.60
39519;DHT22;25200;53.394;10.414;2022-08-21T04:12:55;15.30;64.70
39519;DHT22;25200;53.394;10.414;2022-08-21T04:15:22;15.30;64.50
39519;DHT22;25200;53.394;10.414;2022-08-21T04:17:48;15.30;64.40
39519;DHT22;25200;53.394;10.414;2022-08-21T04:20:15;15.20;64.60
39519;DHT22;25200;53.394;10.414;2022-08-21T04:22:41;15.20;64.60
39519;DHT22;25200;53.394;10.414;2022-08-21T04:25:07;15.30;64.70
39519;DHT22;25200;53.394;10.414;2022-08-21T04:27:34;15.20;64.80
39519;DHT22;25200;53.394;10.414;2022-08-21T04:30:00;15.20;64.60
39519;DHT22;25200;53.394;10.414;2022-08-21T04:32:26;15.20;64.90
39519;DHT22;25200;53.394;10.414;2022-08-21T04:35:06;15.20;64.70
39519;DHT22;25200;53.394;10.414;2022-08-21T04:37:32;15.20;64.80
39519;DHT22;25200;53.394;10.414;2022-08-21T04:39:58;15.20;64.90
39519;DHT22;25200;53.394;10.414;2022-08-21T04:42:27;15.20;64.90
39519;DHT22;25200;53.394;10.414;2022-08-21T04:44:54;15.20;64.70
39519;DHT22;25200;53.394;10.414;2022-08-21T04:47:21;15.20;64.90
39519;DHT22;25200;53.394;10.414;2022-08-21T04:49:47;15.20;65.00
39519;DHT22;25200;53.394;10.414;2022-08-21T04:52:16;15.20;65.00
39519;DHT22;25200;53.394;10.414;2022-08-21T04:54:44;15.20;64.90
39519;DHT22;25200;53.394;10.414;2022-08-21T04:57:11;15.20;65.00
39519;DHT22;25200;53.394;10.414;2022-08-21T04:59:40;15.20;65.10
39519;DHT22;25200;53.394;10.414;2022-08-21T05:02:08;15.20;65.00
39519;DHT22;25200;53.394;10.414;2022-08-21T05:04:36;15.20;64.90
39519;DHT22;25200;53.394;10.414;2022-08-21T05:07:05;15.20;65.10
39519;DHT22;25200;53.394;10.414;2022-08-21T05:09:32;15.20;65.30
39519;DHT22;25200;53.394;10.414;2022-08-21T05:11:58;15.20;65.00
39519;DHT22;25200;53.394;10.414;2022-08-21T05:14:25;15.20;65.10
39519;DHT22;25200;53.394;10.414;2022-08-21T05:16:52;15.20;65.40
39519;DHT22;25200;53.394;10.414;2022-08-21T05:19:18;15.30;65.40
39519;DHT22;25200;53.394;10.414;2022-08-21T05:21:45;15.30;65.00
39519;DHT22;25200;53.394;10.414;2022-08-21T05:24:13;15.40;65.00
39519;DHT22;25200;53.394;10.414;2022-08-21T05:26:39;15.50;63.90
39519;DHT22;25200;53.394;10.414;2022-08-21T05:29:05;15.50;64.10
39519;DHT22;25200;53.394;10.414;2022-08-21T05:31:31;15.50;63.60
39519;DHT22;25200;53.394;10.414;2022-08-21T05:33:56;15.60;64.10
39519;DHT22;25200;53.394;10.414;2022-08-21T05:36:23;15.70;64.30
39519;DHT22;25200;53.394;10.414;2022-08-21T05:38:49;15.60;64.10
39519;DHT22;25200;53.394;10.414;2022-08-21T05:41:14;15.70;64.00
39519;DHT22;25200;53.394;10.414;2022-08-21T05:43:40;15.80;63.70
39519;DHT22;25200;53.394;10.414;2022-08-21T05:46:07;15.80;63.40
39519;DHT22;25200;53.394;10.414;2022-08-21T05:48:34;15.80;63.10
39519;DHT22;25200;53.394;10.414;2022-08-21T05:51:08;15.80;63.50
39519;DHT22;25200;53.394;10.414;2022-08-21T05:53:36;15.80;63.00
39519;DHT22;25200;53.394;10.414;2022-08-21T05:56:03;15.80;62.50
39519;DHT22;25200;53.394;10.414;2022-08-21T05:58:30;15.90;63.00
39519;DHT22;25200;53.394;10.414;2022-08-21T06:00:56;15.90;63.50
39519;DHT22;25200;53.394;10.414;2022-08-21T06:03:26;15.90;62.60
39519;DHT22;25200;53.394;10.414;2022-08-21T06:05:53;16.00;62.90
39519;DHT22;25200;53.394;10.414;2022-08-21T06:08:20;16.10;62.50
39519;DHT22;25200;53.394;10.414;2022-08-21T06:10:47;16.20;62.40
39519;DHT22;25200;53.394;10.414;2022-08-21T06:13:15;16.20;62.50
39519;DHT22;25200;53.394;10.414;2022-08-21T06:15:41;16.40;62.00
39519;DHT22;25200;53.394;10.414;2022-08-21T06:18:07;16.40;61.70
39519;DHT22;25200;53.394;10.414;2022-08-21T06:20:33;16.50;61.90
39519;DHT22;25200;53.394;10.414;2022-08-21T06:22:59;16.50;61.60
39519;DHT22;25200;53.394;10.414;2022-08-21T06:25:25;16.60;61.40
39519;DHT22;25200;53.394;10.414;2022-08-21T06:27:51;16.70;61.30
39519;DHT22;25200;53.394;10.414;2022-08-21T06:30:18;16.80;61.20
39519;DHT22;25200;53.394;10.414;2022-08-21T06:32:44;16.90;61.10
39519;DHT22;25200;53.394;10.414;2022-08-21T06:35:10;16.90;61.20
39519;DHT22;25200;53.394;10.414;2022-08-21T06:37:36;17.00;60.90
39519;DHT22;25200;53.394;10.414;2022-08-21T06:40:04;17.10;60.90
39519;DHT22;25200;53.394;10.414;2022-08-21T06:42:31;17.10;60.70
39519;DHT22;25200;53.394;10.414;2022-08-21T06:44:57;17.20;60.60
39519;DHT22;25200;53.394;10.414;2022-08-21T06:47:23;17.30;60.60
39519;DHT22;25200;53.394;10.414;2022-08-21T06:49:49;17.30;61.00
39519;DHT22;25200;53.394;10.414;2022-08-21T06:52:14;17.40;60.50
39519;DHT22;25200;53.394;10.414;2022-08-21T06:54:41;17.50;60.30
39519;DHT22;25200;53.394;10.414;2022-08-21T06:57:06;17.50;60.20
39519;DHT22;25200;53.394;10.414;2022-08-21T06:59:32;17.60;60.30
39519;DHT22;25200;53.394;10.414;2022-08-21T07:01:59;17.60;60.20
39519;DHT22;25200;53.394;10.414;2022-08-21T07:04:25;17.60;60.20
39519;DHT22;25200;53.394;10.414;2022-08-21T07:06:51;17.70;60.20
39519;DHT22;25200;53.394;10.414;2022-08-21T07:09:16;17.70;60.30
39519;DHT22;25200;53.394;10.414;2022-08-21T07:11:44;17.70;60.20
39519;DHT22;25200;53.394;10.414;2022-08-21T07:14:12;17.70;60.00
39519;DHT22;25200;53.394;10.414;2022-08-21T07:16:37;17.70;60.30
39519;DHT22;25200;53.394;10.414;2022-08-21T07:19:03;17.70;60.20
39519;DHT22;25200;53.394;10.414;2022-08-21T07:21:29;17.70;60.20
39519;DHT22;25200;53.394;10.414;2022-08-21T07:23:55;17.80;60.60
39519;DHT22;25200;53.394;10.414;2022-08-21T07:26:22;17.80;60.20
39519;DHT22;25200;53.394;10.414;2022-08-21T07:28:49;17.80;60.70
39519;DHT22;25200;53.394;10.414;2022-08-21T07:31:17;17.80;60.30
39519;DHT22;25200;53.394;10.414;2022-08-21T07:33:43;17.80;60.30
39519;DHT22;25200;53.394;10.414;2022-08-21T07:36:10;17.90;60.30
39519;DHT22;25200;53.394;10.414;2022-08-21T07:38:36;17.90;60.40
39519;DHT22;25200;53.394;10.414;2022-08-21T07:41:04;17.90;60.60
39519;DHT22;25200;53.394;10.414;2022-08-21T07:43:32;17.90;60.30
39519;DHT22;25200;53.394;10.414;2022-08-21T07:45:57;18.00;60.60
39519;DHT22;25200;53.394;10.414;2022-08-21T07:48:24;18.00;60.60
39519;DHT22;25200;53.394;10.414;2022-08-21T07:50:50;18.10;61.00
39519;DHT22;25200;53.394;10.414;2022-08-21T07:53:16;18.20;61.10
39519;DHT22;25200;53.394;10.414;2022-08-21T07:55:42;18.40;60.90
39519;DHT22;25200;53.394;10.414;2022-08-21T07:58:08;18.50;61.30
39519;DHT22;25200;53.394;10.414;2022-08-21T08:00:34;18.60;61.50
39519;DHT22;25200;53.394;10.414;2022-08-21T08:03:00;18.80;61.60
39519;DHT22;25200;53.394;10.414;2022-08-21T08:05:29;19.00;61.30
39519;DHT22;25200;53.394;10.414;2022-08-21T08:07:55;19.10;60.60
39519;DHT22;25200;53.394;10.414;2022-08-21T08:10:21;19.20;60.30
39519;DHT22;25200;53.394;10.414;2022-08-21T08:12:48;19.20;60.00
39519;DHT22;25200;53.394;10.414;2022-08-21T08:15:17;19.20;59.80
39519;DHT22;25200;53.394;10.414;2022-08-21T08:17:43;19.20;59.90
39519;DHT22;25200;53.394;10.414;2022-08-21T08:20:10;19.20;60.00
39519;DHT22;25200;53.394;10.414;2022-08-21T08:22:38;19.20;60.00
39519;DHT22;25200;53.394;10.414;2022-08-21T08:25:05;19.20;60.10
39519;DHT22;25200;53.394;10.414;2022-08-21T08:27:32;19.30;60.40
39519;DHT22;25200;53.394;10.414;2022-08-21T08:29:58;19.30;60.10
39519;DHT22;25200;53.394;10.414;2022-08-21T08:32:23;19.40;60.00
39519;DHT22;25200;53.394;10.414;2022-08-21T08:34:49;19.40;59.90
39519;DHT22;25200;53.394;10.414;2022-08-21T08:37:18;19.40;60.00
39519;DHT22;25200;53.394;10.414;2022-08-21T08:39:44;19.50;59.80
39519;DHT22;25200;53.394;10.414;2022-08-21T08:42:16;19.60;59.80
39519;DHT22;25200;53.394;10.414;2022-08-21T08:44:45;19.60;59.70
39519;DHT22;25200;53.394;10.414;2022-08-21T08:47:13;19.70;59.60
39519;DHT22;25200;53.394;10.414;2022-08-21T08:49:49;19.80;59.70
39519;DHT22;25200;53.394;10.414;2022-08-21T08:52:30;19.90;59.70
39519;DHT22;25200;53.394;10.414;2022-08-21T08:55:13;20.00;59.70
39519;DHT22;25200;53.394;10.414;2022-08-21T08:57:44;20.20;59.60
39519;DHT22;25200;53.394;10.414;2022-08-21T09:00:12;20.30;59.90
39519;DHT22;25200;53.394;10.414;2022-08-21T09:02:41;20.50;59.50
39519;DHT22;25200;53.394;10.414;2022-08-21T09:05:09;20.80;59.60
39519;DHT22;25200;53.394;10.414;2022-08-21T09:13:24;21.40;59.00
39519;DHT22;25200;53.394;10.414;2022-08-21T09:19:14;22.00;58.40
39519;DHT22;25200;53.394;10.414;2022-08-21T09:21:58;22.30;58.10
39519;DHT22;25200;53.394;10.414;2022-08-21T09:27:17;22.60;57.30
39519;DHT22;25200;53.394;10.414;2022-08-21T09:29:46;22.80;57.70
39519;DHT22;25200;53.394;10.414;2022-08-21T09:32:25;23.00;57.70
39519;DHT22;25200;53.394;10.414;2022-08-21T09:37:21;23.60;57.30
39519;DHT22;25200;53.394;10.414;2022-08-21T09:39:47;23.90;56.70
39519;DHT22;25200;53.394;10.414;2022-08-21T09:42:22;24.00;56.70
39519;DHT22;25200;53.394;10.414;2022-08-21T09:44:48;24.00;56.20
39519;DHT22;25200;53.394;10.414;2022-08-21T09:47:18;23.90;56.40
39519;DHT22;25200;53.394;10.414;2022-08-21T09:49:44;23.90;56.60
39519;DHT22;25200;53.394;10.414;2022-08-21T09:52:18;24.10;56.60
39519;DHT22;25200;53.394;10.414;2022-08-21T09:54:50;24.40;56.80
39519;DHT22;25200;53.394;10.414;2022-08-21T09:57:27;24.70;56.60
39519;DHT22;25200;53.394;10.414;2022-08-21T10:00:27;25.00;56.70
39519;DHT22;25200;53.394;10.414;2022-08-21T10:03:10;25.40;56.50
39519;DHT22;25200;53.394;10.414;2022-08-21T10:05:37;25.60;55.90
39519;DHT22;25200;53.394;10.414;2022-08-21T10:08:03;25.90;55.80
39519;DHT22;25200;53.394;10.414;2022-08-21T10:10:36;26.10;55.80
39519;DHT22;25200;53.394;10.414;2022-08-21T10:24:29;27.00;54.90
39519;DHT22;25200;53.394;10.414;2022-08-21T10:30:04;27.20;54.10
39519;DHT22;25200;53.394;10.414;2022-08-21T10:35:28;26.70;53.30
39519;DHT22;25200;53.394;10.414;2022-08-21T10:41:02;26.70;54.90
39519;DHT22;25200;53.394;10.414;2022-08-21T10:44:21;27.10;54.90
39519;DHT22;25200;53.394;10.414;2022-08-21T10:46:47;27.30;54.10
39519;DHT22;25200;53.394;10.414;2022-08-21T10:54:57;28.00;54.40
39519;DHT22;25200;53.394;10.414;2022-08-21T11:00:21;28.30;53.30
39519;DHT22;25200;53.394;10.414;2022-08-21T11:08:12;27.70;53.20
39519;DHT22;25200;53.394;10.414;2022-08-21T11:11:10;27.90;54.40
39519;DHT22;25200;53.394;10.414;2022-08-21T11:13:50;28.10;54.30
39519;DHT22;25200;53.394;10.414;2022-08-21T11:16:25;28.40;54.00
39519;DHT22;25200;53.394;10.414;2022-08-21T11:19:02;28.60;53.80
39519;DHT22;25200;53.394;10.414;2022-08-21T11:27:02;28.50;53.70
39519;DHT22;25200;53.394;10.414;2022-08-21T11:29:37;28.70;53.60
39519;DHT22;25200;53.394;10.414;2022-08-21T11:49:39;30.90;53.30
39519;DHT22;25200;53.394;10.414;2022-08-21T11:54:59;31.50;52.90
39519;DHT22;25200;53.394;10.414;2022-08-21T11:57:57;31.80;52.50
39519;DHT22;25200;53.394;10.414;2022-08-21T12:00:39;32.00;52.60
39519;DHT22;25200;53.394;10.414;2022-08-21T12:03:14;32.10;52.30
39519;DHT22;25200;53.394;10.414;2022-08-21T12:05:44;32.30;52.00
39519;DHT22;25200;53.394;10.414;2022-08-21T12:08:57;32.50;52.10
39519;DHT22;25200;53.394;10.414;2022-08-21T12:11:24;32.60;51.10
39519;DHT22;25200;53.394;10.414;2022-08-21T12:14:13;32.70;50.90
39519;DHT22;25200;53.394;10.414;2022-08-21T12:16:42;32.80;49.90
39519;DHT22;25200;53.394;10.414;2022-08-21T12:19:31;32.80;51.60
39519;DHT22;25200;53.394;10.414;2022-08-21T12:24:49;32.90;50.90
39519;DHT22;25200;53.394;10.414;2022-08-21T12:27:19;32.90;50.20
39519;DHT22;25200;53.394;10.414;2022-08-21T12:29:49;32.90;50.20
39519;DHT22;25200;53.394;10.414;2022-08-21T12:34:57;33.10;50.60
39519;DHT22;25200;53.394;10.414;2022-08-21T12:37:39;33.20;50.60
39519;DHT22;25200;53.394;10.414;2022-08-21T12:40:18;33.50;51.10
39519;DHT22;25200;53.394;10.414;2022-08-21T12:42:49;33.60;49.90
39519;DHT22;25200;53.394;10.414;2022-08-21T12:45:31;33.70;50.80
39519;DHT22;25200;53.394;10.414;2022-08-21T12:56:17;33.80;48.40
39519;DHT22;25200;53.394;10.414;2022-08-21T12:58:55;33.40;47.60
39519;DHT22;25200;53.394;10.414;2022-08-21T13:01:24;33.00;47.90
39519;DHT22;25200;53.394;10.414;2022-08-21T13:03:55;32.70;47.70
39519;DHT22;25200;53.394;10.414;2022-08-21T13:06:23;32.40;47.40
39519;DHT22;25200;53.394;10.414;2022-08-21T13:08:56;32.10;47.70
39519;DHT22;25200;53.394;10.414;2022-08-21T13:11:24;31.80;48.40
39519;DHT22;25200;53.394;10.414;2022-08-21T13:13:51;31.90;49.70
39519;DHT22;25200;53.394;10.414;2022-08-21T13:16:24;32.10;50.50
39519;DHT22;25200;53.394;10.414;2022-08-21T13:21:19;32.70;49.50
39519;DHT22;25200;53.394;10.414;2022-08-21T13:23:45;32.90;50.30
39519;DHT22;25200;53.394;10.414;2022-08-21T13:26:16;33.10;50.40
39519;DHT22;25200;53.394;10.414;2022-08-21T13:28:42;32.90;47.40
39519;DHT22;25200;53.394;10.414;2022-08-21T13:31:10;32.60;47.20
39519;DHT22;25200;53.394;10.414;2022-08-21T13:33:37;32.50;47.60
39519;DHT22;25200;53.394;10.414;2022-08-21T13:36:09;32.60;49.10
39519;DHT22;25200;53.394;10.414;2022-08-21T13:38:39;32.80;50.00
39519;DHT22;25200;53.394;10.414;2022-08-21T13:41:22;33.10;50.00
39519;DHT22;25200;53.394;10.414;2022-08-21T13:43:56;33.40;49.90
39519;DHT22;25200;53.394;10.414;2022-08-21T13:46:24;33.50;49.70
39519;DHT22;25200;53.394;10.414;2022-08-21T13:48:51;33.60;49.90
39519;DHT22;25200;53.394;10.414;2022-08-21T13:51:18;33.70;49.70
39519;DHT22;25200;53.394;10.414;2022-08-21T13:53:47;33.50;47.90
39519;DHT22;25200;53.394;10.414;2022-08-21T13:56:42;33.20;47.70
39519;DHT22;25200;53.394;10.414;2022-08-21T13:59:08;33.10;48.60
39519;DHT22;25200;53.394;10.414;2022-08-21T14:01:50;33.00;48.20
39519;DHT22;25200;53.394;10.414;2022-08-21T14:04:24;32.90;48.30
39519;DHT22;25200;53.394;10.414;2022-08-21T14:06:51;33.00;49.10
39519;DHT22;25200;53.394;10.414;2022-08-21T14:10:03;33.10;49.60
39519;DHT22;25200;53.394;10.414;2022-08-21T14:12:28;33.10;48.90
39519;DHT22;25200;53.394;10.414;2022-08-21T14:14:56;33.10;49.10
39519;DHT22;25200;53.394;10.414;2022-08-21T14:17:37;33.20;49.60
39519;DHT22;25200;53.394;10.414;2022-08-21T14:20:06;33.10;48.50
39519;DHT22;25200;53.394;10.414;2022-08-21T14:22:47;33.20;48.70
39519;DHT22;25200;53.394;10.414;2022-08-21T14:27:56;33.10;48.30
39519;DHT22;25200;53.394;10.414;2022-08-21T14:30:33;32.90;48.70
39519;DHT22;25200;53.394;10.414;2022-08-21T14:33:00;32.90;48.10
39519;DHT22;25200;53.394;10.414;2022-08-21T14:35:27;32.60;46.80
39519;DHT22;25200;53.394;10.414;2022-08-21T14:37:53;32.30;46.90
39519;DHT22;25200;53.394;10.414;2022-08-21T14:40:21;32.00;46.40
39519;DHT22;25200;53.394;10.414;2022-08-21T14:42:47;31.60;46.70
39519;DHT22;25200;53.394;10.414;2022-08-21T14:45:35;31.20;47.10
39519;DHT22;25200;53.394;10.414;2022-08-21T14:48:02;31.20;48.10
39519;DHT22;25200;53.394;10.414;2022-08-21T14:50:28;31.40;49.00
39519;DHT22;25200;53.394;10.414;2022-08-21T14:52:55;31.60;49.90
39519;DHT22;25200;53.394;10.414;2022-08-21T14:55:21;31.80;48.70
39519;DHT22;25200;53.394;10.414;2022-08-21T14:57:49;32.00;48.50
39519;DHT22;25200;53.394;10.414;2022-08-21T15:00:18;32.00;47.90
39519;DHT22;25200;53.394;10.414;2022-08-21T15:02:45;32.00;47.50
39519;DHT22;25200;53.394;10.414;2022-08-21T15:05:11;31.90;47.70
39519;DHT22;25200;53.394;10.414;2022-08-21T15:07:37;31.80;47.50
39519;DHT22;25200;53.394;10.414;2022-08-21T15:10:04;31.60;47.20
39519;DHT22;25200;53.394;10.414;2022-08-21T15:12:30;31.40;46.80
39519;DHT22;25200;53.394;10.414;2022-08-21T15:14:56;31.20;46.70
39519;DHT22;25200;53.394;10.414;2022-08-21T15:17:22;31.00;46.90
39519;DHT22;25200;53.394;10.414;2022-08-21T15:19:48;30.90;46.90
39519;DHT22;25200;53.394;10.414;2022-08-21T15:22:13;30.60;46.80
39519;DHT22;25200;53.394;10.414;2022-08-21T15:24:39;30.40;47.10
39519;DHT22;25200;53.394;10.414;2022-08-21T15:27:07;30.20;47.10
39519;DHT22;25200;53.394;10.414;2022-08-21T15:29:33;30.00;47.10
39519;DHT22;25200;53.394;10.414;2022-08-21T15:34:40;29.60;47.90
39519;DHT22;25200;53.394;10.414;2022-08-21T15:37:06;29.50;47.70
39519;DHT22;25200;53.394;10.414;2022-08-21T15:39:34;29.30;47.30
39519;DHT22;25200;53.394;10.414;2022-08-21T15:42:01;29.30;47.50
39519;DHT22;25200;53.394;10.414;2022-08-21T15:44:28;29.10;47.80
39519;DHT22;25200;53.394;10.414;2022-08-21T15:46:55;29.00;47.90
39519;DHT22;25200;53.394;10.414;2022-08-21T15:49:21;28.90;48.50
39519;DHT22;25200;53.394;10.414;2022-08-21T15:51:47;28.70;48.10
39519;DHT22;25200;53.394;10.414;2022-08-21T15:54:13;28.70;48.40
39519;DHT22;25200;53.394;10.414;2022-08-21T15:56:40;28.50;48.10
39519;DHT22;25200;53.394;10.414;2022-08-21T15:59:15;28.40;48.20
39519;DHT22;25200;53.394;10.414;2022-08-21T16:01:42;28.30;48.10
39519;DHT22;25200;53.394;10.414;2022-08-21T16:04:08;28.20;48.10
39519;DHT22;25200;53.394;10.414;2022-08-21T16:06:34;28.00;48.10
39519;DHT22;25200;53.394;10.414;2022-08-21T16:09:00;27.90;48.10
39519;DHT22;25200;53.394;10.414;2022-08-21T16:11:26;27.80;48.00
39519;DHT22;25200;53.394;10.414;2022-08-21T16:13:52;27.70;48.40
39519;DHT22;25200;53.394;10.414;2022-08-21T16:16:20;27.60;48.40
39519;DHT22;25200;53.394;10.414;2022-08-21T16:18:47;27.50;48.60
39519;DHT22;25200;53.394;10.414;2022-08-21T16:21:14;27.50;48.50
39519;DHT22;25200;53.394;10.414;2022-08-21T16:23:39;27.40;48.80
39519;DHT22;25200;53.394;10.414;2022-08-21T16:26:06;27.30;48.80
39519;DHT22;25200;53.394;10.414;2022-08-21T16:28:35;27.20;48.60
39519;DHT22;25200;53.394;10.414;2022-08-21T16:31:01;27.10;48.60
39519;DHT22;25200;53.394;10.414;2022-08-21T16:33:39;27.00;48.70
39519;DHT22;25200;53.394;10.414;2022-08-21T16:36:06;26.90;48.90
39519;DHT22;25200;53.394;10.414;2022-08-21T16:38:33;26.80;48.80
39519;DHT22;25200;53.394;10.414;2022-08-21T16:41:01;26.70;48.90
39519;DHT22;25200;53.394;10.414;2022-08-21T16:43:28;26.70;49.10
39519;DHT22;25200;53.394;10.414;2022-08-21T16:45:56;26.60;48.90
39519;DHT22;25200;53.394;10.414;2022-08-21T16:48:22;26.50;49.10
39519;DHT22;25200;53.394;10.414;2022-08-21T16:50:48;26.40;49.10
39519;DHT22;25200;53.394;10.414;2022-08-21T16:53:14;26.40;49.40
39519;DHT22;25200;53.394;10.414;2022-08-21T16:55:40;26.30;49.20
39519;DHT22;25200;53.394;10.414;2022-08-21T16:58:34;26.20;49.30
39519;DHT22;25200;53.394;10.414;2022-08-21T17:00:58;26.20;49.60